createdAt,value
2023-05-17T00:04:31.487Z,14.07
2023-05-17T00:09:36.319Z,14.13
2023-05-17T00:14:41.562Z,14.16
2023-05-17T00:19:48.511Z,14.20
2023-05-17T00:24:53.886Z,14.23
2023-05-17T00:29:59.812Z,14.23
2023-05-17T00:35:09.077Z,14.38
2023-05-17T00:40:18.170Z,14.22
2023-05-17T00:45:23.970Z,14.31
2023-05-17T00:50:32.051Z,14.28
2023-05-17T00:55:37.967Z,14.39
2023-05-17T01:00:44.594Z,14.36
2023-05-17T01:05:53.802Z,14.31
2023-05-17T01:11:09.967Z,14.47
2023-05-17T01:16:26.530Z,14.37
2023-05-17T01:21:54.144Z,14.35
2023-05-17T01:27:07.175Z,14.38
2023-05-17T01:32:14.018Z,14.44
2023-05-17T01:37:19.888Z,14.46
2023-05-17T01:42:34.179Z,14.46
2023-05-17T01:47:50.224Z,14.41
2023-05-17T01:52:57.974Z,14.39
2023-05-17T01:58:10.196Z,14.30
2023-05-17T02:03:19.584Z,14.44
2023-05-17T02:08:30.161Z,14.33
2023-05-17T02:13:37.487Z,13.94
2023-05-17T02:18:42.730Z,14.28
2023-05-17T02:23:48.086Z,14.26
2023-05-17T02:28:55.763Z,14.21
2023-05-17T02:34:05.687Z,14.25
2023-05-17T02:39:10.851Z,14.22
2023-05-17T02:44:19.001Z,14.27
2023-05-17T02:49:25.046Z,14.25
2023-05-17T02:54:31.148Z,14.25
2023-05-17T02:59:39.353Z,14.38
2023-05-17T03:04:45.280Z,14.37
2023-05-17T03:09:51.872Z,14.41
2023-05-17T03:15:00.475Z,14.38
2023-05-17T03:20:07.533Z,14.44
2023-05-17T03:25:14.491Z,14.62
2023-05-17T03:30:22.186Z,14.63
2023-05-17T03:35:28.447Z,14.62
2023-05-17T03:40:35.852Z,14.56
2023-05-17T03:45:45.864Z,14.60
2023-05-17T03:50:52.115Z,14.73
2023-05-17T03:55:59.190Z,14.80
2023-05-17T04:01:11.082Z,14.93
2023-05-17T04:06:17.630Z,14.91
2023-05-17T04:11:25.045Z,14.85
2023-05-17T04:16:34.180Z,14.86
2023-05-17T04:21:40.118Z,14.91
2023-05-17T04:27:02.028Z,14.90
2023-05-17T04:32:12.025Z,14.82
2023-05-17T04:37:19.961Z,14.96
2023-05-17T04:42:29.021Z,14.97
2023-05-17T04:47:40.667Z,15.05
2023-05-17T04:52:49.492Z,15.06
2023-05-17T04:57:56.301Z,15.31
2023-05-17T05:03:07.032Z,15.45
2023-05-17T05:08:14.697Z,15.48
2023-05-17T05:13:21.579Z,15.67
2023-05-17T05:18:29.379Z,15.85
2023-05-17T05:23:36.455Z,16.06
2023-05-17T05:28:43.851Z,16.08
2023-05-17T05:33:53.468Z,16.23
2023-05-17T05:38:58.967Z,16.45
2023-05-17T05:50:44.711Z,16.87
2023-05-17T06:37:51.959Z,18.80
2023-05-17T06:43:28.097Z,19.29
2023-05-17T06:48:32.872Z,19.27
2023-05-17T07:00:11.536Z,20.60
2023-05-17T07:05:16.056Z,20.66
2023-05-17T07:10:21.757Z,20.73
2023-05-17T07:15:26.027Z,20.36
2023-05-17T07:20:30.358Z,20.20
2023-05-17T07:25:38.767Z,20.07
2023-05-17T07:30:42.680Z,19.71
2023-05-17T07:35:46.943Z,19.49
2023-05-17T07:40:52.768Z,19.55
2023-05-17T07:45:57.142Z,19.56
2023-05-17T07:51:01.025Z,19.44
2023-05-17T07:57:18.150Z,19.10
2023-05-17T08:02:23.590Z,19.16
2023-05-17T08:07:27.436Z,19.20
2023-05-17T08:12:31.195Z,19.54
2023-05-17T08:17:36.719Z,19.83
2023-05-17T08:22:40.648Z,20.07
2023-05-17T08:27:44.124Z,19.90
2023-05-17T08:32:49.833Z,19.93
2023-05-17T08:37:53.400Z,19.91
2023-05-17T08:42:57.260Z,20.01
2023-05-17T08:48:03.502Z,20.27
2023-05-17T08:53:07.721Z,20.46
2023-05-17T08:58:13.526Z,20.89
2023-05-17T09:03:20.011Z,21.03
2023-05-17T09:08:24.304Z,21.01
2023-05-17T09:13:28.284Z,20.80
2023-05-17T09:18:34.318Z,20.78
2023-05-17T09:23:39.812Z,20.75
2023-05-17T09:28:43.698Z,21.09
2023-05-17T09:33:50.384Z,21.02
2023-05-17T09:38:56.432Z,21.03
2023-05-17T09:44:03.328Z,20.99
2023-05-17T09:49:09.356Z,20.89
2023-05-17T09:54:14.188Z,20.90
2023-05-17T09:59:18.052Z,20.91
2023-05-17T10:04:24.995Z,21.09
2023-05-17T10:09:34.549Z,21.50
2023-05-17T10:14:40.029Z,21.75
2023-05-17T10:19:46.454Z,21.46
2023-05-17T10:24:51.481Z,21.27
2023-05-17T10:29:55.709Z,21.26
2023-05-17T10:35:11.351Z,21.30
2023-05-17T10:40:17.662Z,21.46
2023-05-17T10:45:23.637Z,21.35
2023-05-17T10:50:28.779Z,21.30
2023-05-17T10:55:40.308Z,21.42
2023-05-17T11:00:44.895Z,21.33
2023-05-17T11:06:25.320Z,21.54
2023-05-17T11:11:29.752Z,21.31
2023-05-17T11:16:38.049Z,21.23
2023-05-17T11:21:50.234Z,21.09
2023-05-17T11:26:56.811Z,20.95
2023-05-17T11:32:00.394Z,21.05
2023-05-17T11:37:06.322Z,21.26
2023-05-17T11:42:26.654Z,21.26
2023-05-17T11:47:31.419Z,21.17
2023-05-17T11:52:36.578Z,21.28
2023-05-17T11:57:41.109Z,21.18
2023-05-17T12:02:44.850Z,21.03
2023-05-17T12:07:50.347Z,21.01
2023-05-17T12:12:54.592Z,20.83
2023-05-17T12:17:58.230Z,20.61
2023-05-17T12:23:03.519Z,20.57
2023-05-17T12:28:18.986Z,20.46
2023-05-17T12:33:22.623Z,20.53
2023-05-17T12:38:32.108Z,20.40
2023-05-17T12:43:36.456Z,20.34
2023-05-17T12:48:41.582Z,20.14
2023-05-17T12:53:51.285Z,19.96
2023-05-17T12:59:13.096Z,20.06
2023-05-17T13:04:18.545Z,19.90
2023-05-17T13:09:25.525Z,19.78
2023-05-17T13:14:36.867Z,19.75
2023-05-17T13:19:40.972Z,19.54
2023-05-17T13:24:46.409Z,19.33
2023-05-17T13:29:50.035Z,19.38
2023-05-17T13:34:53.694Z,19.41
2023-05-17T13:39:59.069Z,19.38
2023-05-17T13:45:02.792Z,19.50
2023-05-17T13:50:10.675Z,19.53
2023-05-17T13:55:15.862Z,19.53
2023-05-17T14:00:19.837Z,19.56
2023-05-17T14:05:24.065Z,19.51
2023-05-17T14:10:29.155Z,19.58
2023-05-17T14:15:38.104Z,19.54
2023-05-17T14:20:41.687Z,19.56
2023-05-17T14:25:49.133Z,19.25
2023-05-17T14:30:53.442Z,19.29
2023-05-17T14:35:57.243Z,19.09
2023-05-17T14:41:02.469Z,18.98
2023-05-17T14:46:06.468Z,18.98
2023-05-17T14:51:10.073Z,18.80
2023-05-17T14:56:15.565Z,18.76
2023-05-17T15:01:19.241Z,18.71
2023-05-17T15:06:24.910Z,18.73
2023-05-17T15:11:30.089Z,18.51
2023-05-17T15:16:33.899Z,18.56
2023-05-17T15:21:37.664Z,18.56
2023-05-17T15:26:43.137Z,18.44
2023-05-17T15:31:46.850Z,18.44
2023-05-17T15:36:50.500Z,18.40
2023-05-17T15:41:55.528Z,18.36
2023-05-17T15:47:01.510Z,18.42
2023-05-17T15:52:07.606Z,18.31
2023-05-17T15:57:12.568Z,18.21
2023-05-17T16:02:16.451Z,18.18
2023-05-17T16:07:20.106Z,18.17
2023-05-17T16:12:25.407Z,18.01
2023-05-17T16:17:29.096Z,18.03
2023-05-17T16:22:33.245Z,17.89
2023-05-17T16:27:38.228Z,17.78
2023-05-17T16:32:42.356Z,17.74
2023-05-17T16:37:46.314Z,17.62
2023-05-17T16:42:51.166Z,17.66
2023-05-17T16:47:55.017Z,17.44
2023-05-17T16:52:58.677Z,17.39
2023-05-17T16:58:03.703Z,17.27
2023-05-17T17:03:09.529Z,17.18
2023-05-17T17:08:13.895Z,17.12
2023-05-17T17:13:19.256Z,17.07
2023-05-17T17:18:22.774Z,16.89
2023-05-17T17:23:26.678Z,16.72
2023-05-17T17:28:31.965Z,16.81
2023-05-17T17:33:36.880Z,16.61
2023-05-17T17:38:40.540Z,16.59
2023-05-17T17:43:47.525Z,16.65
2023-05-17T17:48:52.752Z,16.52
2023-05-17T17:53:57.013Z,16.54
2023-05-17T17:59:02.269Z,16.47
2023-05-17T18:04:06.705Z,16.43
2023-05-17T18:09:10.339Z,16.39
2023-05-17T18:14:15.860Z,16.25
2023-05-17T18:19:19.730Z,16.08
2023-05-17T18:24:23.275Z,16.11
2023-05-17T18:29:28.225Z,16.09
2023-05-17T18:34:32.159Z,16.09
2023-05-17T18:39:35.723Z,16.05
2023-05-17T18:44:40.949Z,16.05
2023-05-17T18:49:46.723Z,16.03
2023-05-17T18:54:50.299Z,15.94
2023-05-17T18:59:55.344Z,15.87
2023-05-17T19:04:59.020Z,15.79
2023-05-17T19:10:02.571Z,15.82
2023-05-17T19:15:09.822Z,15.65
2023-05-17T19:20:13.932Z,15.47
2023-05-17T19:25:19.088Z,15.47
2023-05-17T19:30:30.352Z,15.24
2023-05-17T19:35:37.139Z,15.22
2023-05-17T19:40:41.312Z,15.15
2023-05-17T19:45:46.594Z,15.12
2023-05-17T19:50:50.166Z,15.03
2023-05-17T19:55:53.820Z,15.04
2023-05-17T20:00:58.785Z,14.93
2023-05-17T20:06:02.468Z,14.87
2023-05-17T20:11:07.398Z,14.89
2023-05-17T20:16:13.834Z,14.71
2023-05-17T20:21:19.821Z,14.67
2023-05-17T20:26:26.107Z,14.56
2023-05-17T20:31:31.280Z,14.62
2023-05-17T20:36:34.807Z,14.61
2023-05-17T20:41:38.392Z,14.40
2023-05-17T20:46:43.393Z,14.39
2023-05-17T20:51:47.116Z,14.30
2023-05-17T20:56:51.130Z,14.31
2023-05-17T21:01:56.311Z,14.22
2023-05-17T21:07:00.044Z,14.15
2023-05-17T21:12:03.928Z,14.21
2023-05-17T21:17:10.078Z,14.08
2023-05-17T21:22:13.875Z,14.06
2023-05-17T21:27:17.643Z,13.95
2023-05-17T21:32:23.078Z,13.88
2023-05-17T21:37:27.043Z,13.88
2023-05-17T21:42:31.005Z,13.85
2023-05-17T21:47:36.599Z,13.90
2023-05-17T21:52:40.487Z,13.77
2023-05-17T21:57:44.308Z,13.72
2023-05-17T22:02:50.141Z,13.76
2023-05-17T22:07:53.952Z,13.65
2023-05-17T22:12:58.272Z,13.66
2023-05-17T22:18:05.339Z,13.54
2023-05-17T22:23:09.512Z,13.59
2023-05-17T22:28:13.056Z,13.59
2023-05-17T22:33:17.999Z,13.58
2023-05-17T22:38:21.530Z,13.63
2023-05-17T22:43:26.066Z,13.66
2023-05-17T22:48:32.222Z,13.57
2023-05-17T22:53:35.952Z,13.60
2023-05-17T22:58:40.879Z,13.66
2023-05-17T23:03:45.826Z,13.72
2023-05-17T23:08:50.095Z,13.59
2023-05-17T23:13:53.922Z,13.61
2023-05-17T23:19:00.261Z,13.57
2023-05-17T23:24:03.771Z,13.56
2023-05-17T23:29:07.256Z,13.50
2023-05-17T23:34:12.500Z,13.53
2023-05-17T23:39:16.065Z,13.54
2023-05-17T23:44:19.651Z,13.50
2023-05-17T23:49:24.807Z,13.52
2023-05-17T23:54:28.485Z,13.56
2023-05-17T23:59:33.278Z,13.58
